»·PEaware :: AAL1024 KPHX-KSAN

AAL1024 :: KPHX-KSAN

FLIGHT INFORMATION

Flight Status: Arrived
Operator:
American Airlines
More flights by this operator :: More flights under this callsign
Pilot: Vimal A. (13781)
Aircraft: BOEING 757-200
(B752)
More flights by this aircraft type
Origin: KPHX Phoenix Sky Harbor Intl
United States
Destination: KSAN San Diego Intl-Lindbergh
United States
More flights between these airports :: More routes between these airports
Route: +JUDTH5 MOHAK J2 HOGGZ LUCKI1
File this flight plan on PilotEdge
Remarks:
Altitude:
(Current/Filed)
32,000ft
Speed:
(Current/Filed)
400kts
Departed: 09-Jan-17 11:15 AM
Arrived: 09-Jan-17 12:12 PM
Distance/Time
Traveled:
264nm/0:56
Distance/Time
To Go:
Arrived

Flight Plot

Page will automatically refresh every two minutes.


Map Options




Map Legend


Flown Route
Filed Route
Departure Airport
Arrival Airport
Navaid (VOR, NDB)
Fix

Horizontal Profiles

Position Reports

Time Latitude Longitude Heading Altitude Ground
Speed
09-Jan-17 10:55 33.437537 -112.001238 270 1134ft 0kts
09-Jan-17 10:56 33.437537 -112.001238 270 1134ft 0kts
09-Jan-17 10:57 33.437537 -112.001238 270 1134ft 0kts
09-Jan-17 10:58 33.437537 -112.001238 270 1134ft 0kts
09-Jan-17 10:59 33.437537 -112.001238 270 1134ft 0kts
09-Jan-17 11:00 33.437537 -112.001238 270 1134ft 0kts
09-Jan-17 11:01 33.437537 -112.001238 270 1134ft 0kts
09-Jan-17 11:02 33.437537 -112.001238 270 1134ft 0kts
09-Jan-17 11:03 33.437537 -112.001238 270 1134ft 0kts
09-Jan-17 11:04 33.437537 -112.001238 270 1134ft 0kts
09-Jan-17 11:05 33.437534 -112.000883 270 1133ft 1kts
09-Jan-17 11:06 33.437451 -112.000516 351 1134ft 0kts
09-Jan-17 11:07 33.437451 -112.000516 351 1134ft 0kts
09-Jan-17 11:08 33.437451 -112.000516 351 1134ft 0kts
09-Jan-17 11:09 33.437451 -112.000516 351 1134ft 0kts
09-Jan-17 11:10 33.438533 -112.000545 346 1134ft 12kts
09-Jan-17 11:11 33.439014 -112.007273 270 1134ft 29kts
09-Jan-17 11:12 33.439010 -112.016514 269 1127ft 30kts
09-Jan-17 11:13 33.439024 -112.026432 270 1120ft 29kts
09-Jan-17 11:14 33.440204 -112.029679 1 1117ft 14kts
09-Jan-17 11:15 33.440886 -112.015386 88 1142ft 139kts
09-Jan-17 11:16 33.440253 -111.962727 91 2555ft 230kts
09-Jan-17 11:17 33.435107 -111.890341 93 6854ft 226kts
09-Jan-17 11:18 33.385762 -111.850950 205 10023ft 234kts
09-Jan-17 11:19 33.353883 -111.901671 269 13424ft 225kts
09-Jan-17 11:20 33.359825 -111.982871 271 14997ft 291kts
09-Jan-17 11:21 33.326611 -112.076923 232 15518ft 383kts
09-Jan-17 11:22 33.272300 -112.163803 234 19538ft 366kts
09-Jan-17 11:23 33.219921 -112.248657 234 21818ft 381kts
09-Jan-17 11:24 33.160700 -112.344327 234 24103ft 393kts
09-Jan-17 11:25 33.097482 -112.446677 234 26185ft 404kts
09-Jan-17 11:26 33.030514 -112.554659 234 27903ft 418kts
09-Jan-17 11:27 32.964530 -112.666703 244 29718ft 422kts
09-Jan-17 11:28 32.939066 -112.800402 258 31972ft 414kts
09-Jan-17 11:29 32.920871 -112.932015 258 32171ft 405kts
09-Jan-17 11:30 32.902469 -113.063096 257 32168ft 400kts
09-Jan-17 11:31 32.884751 -113.191194 258 32175ft 400kts
09-Jan-17 11:32 32.866762 -113.320951 258 32172ft 400kts
09-Jan-17 11:33 32.848595 -113.448342 257 32170ft 399kts
09-Jan-17 11:34 32.831160 -113.570726 257 32170ft 400kts
09-Jan-17 11:35 32.814316 -113.689339 257 32195ft 400kts
09-Jan-17 11:36 32.797238 -113.809027 257 32198ft 399kts
09-Jan-17 11:37 32.780074 -113.928523 257 32195ft 400kts
09-Jan-17 11:38 32.772901 -114.044772 264 32194ft 403kts
09-Jan-17 11:39 32.776239 -114.167632 268 32193ft 405kts
09-Jan-17 11:40 32.781137 -114.291158 267 32190ft 406kts
09-Jan-17 11:41 32.791990 -114.413137 281 32193ft 416kts
09-Jan-17 11:42 32.825192 -114.531372 281 32186ft 418kts
09-Jan-17 11:43 32.857285 -114.650248 282 32184ft 417kts
09-Jan-17 11:44 32.876370 -114.767132 264 32212ft 403kts
09-Jan-17 11:45 32.873965 -114.892071 264 32214ft 403kts
09-Jan-17 11:46 32.871259 -115.018117 264 31274ft 400kts
09-Jan-17 11:47 32.868973 -115.138985 264 29524ft 387kts
09-Jan-17 11:48 32.866125 -115.258908 263 27607ft 375kts
09-Jan-17 11:49 32.859134 -115.373988 256 25693ft 361kts
09-Jan-17 11:50 32.843143 -115.486637 257 24107ft 376kts
09-Jan-17 11:51 32.825066 -115.599678 256 21808ft 367kts
09-Jan-17 11:52 32.809009 -115.694690 255 19975ft 358kts
09-Jan-17 11:53 32.792405 -115.797423 255 18101ft 350kts
09-Jan-17 11:54 32.779734 -115.903198 261 16578ft 346kts
09-Jan-17 11:55 32.771766 -116.008058 261 14963ft 338kts
09-Jan-17 11:56 32.764558 -116.111109 261 13506ft 332kts
09-Jan-17 11:57 32.757023 -116.211478 261 12301ft 311kts
09-Jan-17 11:58 32.750012 -116.298223 260 12137ft 273kts
09-Jan-17 11:59 32.743322 -116.383663 258 10623ft 277kts
09-Jan-17 12:00 32.736938 -116.469507 257 9995ft 282kts
09-Jan-17 12:01 32.729753 -116.550816 255 9990ft 261kts
09-Jan-17 12:02 32.721565 -116.629188 265 9957ft 243kts
09-Jan-17 12:03 32.715668 -116.701155 257 7581ft 277kts
09-Jan-17 12:04 32.709411 -116.784970 257 6998ft 240kts
09-Jan-17 12:05 32.694879 -116.856765 243 5547ft 231kts
09-Jan-17 12:06 32.674228 -116.925872 251 4077ft 227kts
09-Jan-17 12:07 32.686418 -116.995131 284 3956ft 213kts
09-Jan-17 12:08 32.701838 -117.059187 285 2325ft 202kts
09-Jan-17 12:09 32.715034 -117.115468 283 1352ft 156kts
09-Jan-17 12:10 32.725452 -117.156982 289 557ft 133kts
09-Jan-17 12:11 32.734923 -117.195130 283 25ft 73kts
09-Jan-17 12:12 32.736059 -117.201984 206 21ft 0kts
09-Jan-17 12:13 32.735436 -117.202217 197 21ft 11kts
09-Jan-17 12:14 32.734532 -117.203402 230 21ft 0kts

Navigation Log

Ident Type
1. KPHX Airport
2. FUTEP Fix
3. AZCRD Fix
4. USEYE Fix
5. MASVE Fix
6. OAKLI Fix
7. GBN Navaid
8. JUDTH Fix
9. MOHAK Fix
10. MOHAK Fix
11. HOGGZ Fix
12. HOGGZ Fix
13. MANRS Fix
14. CBOLA Fix
15. KRMAA Fix
16. SOFII Fix
17. CMPOE Fix
18. HEELX Fix
19. JACKK Fix
20. AZTEK Fix
21. JEEVS Fix
22. LUCKI Fix
23. LYNDI Fix
24. KSAN Airport